sensor_id;sensor_type;location;lat;lon;timestamp;P1;durP1;ratioP1;P2;durP2;ratioP2
71166;SDS011;58864;45.928;20.078;2022-11-20T00:02:20;22.47;;;6.90;;
71166;SDS011;58864;45.928;20.078;2022-11-20T00:04:57;22.55;;;8.98;;
71166;SDS011;58864;45.928;20.078;2022-11-20T00:07:27;30.27;;;10.68;;
71166;SDS011;58864;45.928;20.078;2022-11-20T00:10:02;20.23;;;6.18;;
71166;SDS011;58864;45.928;20.078;2022-11-20T00:12:41;30.13;;;10.60;;
71166;SDS011;58864;45.928;20.078;2022-11-20T00:15:37;32.97;;;10.63;;
71166;SDS011;58864;45.928;20.078;2022-11-20T00:18:18;18.70;;;6.68;;
71166;SDS011;58864;45.928;20.078;2022-11-20T00:20:51;29.63;;;9.63;;
71166;SDS011;58864;45.928;20.078;2022-11-20T00:23:29;25.65;;;9.77;;
71166;SDS011;58864;45.928;20.078;2022-11-20T00:26:13;18.65;;;8.20;;
71166;SDS011;58864;45.928;20.078;2022-11-20T00:29:01;29.37;;;9.87;;
71166;SDS011;58864;45.928;20.078;2022-11-20T00:31:37;12.43;;;5.03;;
71166;SDS011;58864;45.928;20.078;2022-11-20T00:34:19;20.92;;;7.07;;
71166;SDS011;58864;45.928;20.078;2022-11-20T00:37:07;30.45;;;9.43;;
71166;SDS011;58864;45.928;20.078;2022-11-20T00:39:40;14.20;;;6.35;;
71166;SDS011;58864;45.928;20.078;2022-11-20T00:42:25;20.33;;;7.60;;
71166;SDS011;58864;45.928;20.078;2022-11-20T00:45:04;24.65;;;7.75;;
71166;SDS011;58864;45.928;20.078;2022-11-20T00:47:47;31.13;;;10.35;;
71166;SDS011;58864;45.928;20.078;2022-11-20T00:50:19;16.35;;;4.85;;
71166;SDS011;58864;45.928;20.078;2022-11-20T00:52:58;16.20;;;5.63;;
71166;SDS011;58864;45.928;20.078;2022-11-20T00:55:36;26.00;;;7.90;;
71166;SDS011;58864;45.928;20.078;2022-11-20T00:58:06;21.17;;;6.25;;
71166;SDS011;58864;45.928;20.078;2022-11-20T01:00:43;24.40;;;8.52;;
71166;SDS011;58864;45.928;20.078;2022-11-20T01:03:31;18.38;;;7.28;;
71166;SDS011;58864;45.928;20.078;2022-11-20T01:08:55;18.83;;;6.97;;
71166;SDS011;58864;45.928;20.078;2022-11-20T01:11:47;29.77;;;10.25;;
71166;SDS011;58864;45.928;20.078;2022-11-20T01:14:30;22.45;;;7.18;;
71166;SDS011;58864;45.928;20.078;2022-11-20T01:17:11;31.48;;;10.80;;
71166;SDS011;58864;45.928;20.078;2022-11-20T01:20:25;15.20;;;5.18;;
71166;SDS011;58864;45.928;20.078;2022-11-20T01:23:00;18.70;;;5.53;;
71166;SDS011;58864;45.928;20.078;2022-11-20T01:25:43;22.90;;;7.80;;
71166;SDS011;58864;45.928;20.078;2022-11-20T01:28:25;17.77;;;6.88;;
71166;SDS011;58864;45.928;20.078;2022-11-20T01:30:59;25.02;;;8.25;;
71166;SDS011;58864;45.928;20.078;2022-11-20T01:33:55;14.02;;;5.55;;
71166;SDS011;58864;45.928;20.078;2022-11-20T01:36:29;21.07;;;7.00;;
71166;SDS011;58864;45.928;20.078;2022-11-20T01:39:05;18.67;;;5.85;;
71166;SDS011;58864;45.928;20.078;2022-11-20T01:41:50;20.58;;;8.50;;
71166;SDS011;58864;45.928;20.078;2022-11-20T01:44:49;16.35;;;5.80;;
71166;SDS011;58864;45.928;20.078;2022-11-20T01:47:41;21.00;;;7.28;;
71166;SDS011;58864;45.928;20.078;2022-11-20T01:50:23;19.97;;;7.27;;
71166;SDS011;58864;45.928;20.078;2022-11-20T01:53:02;22.92;;;8.23;;
71166;SDS011;58864;45.928;20.078;2022-11-20T01:55:37;27.15;;;7.95;;
71166;SDS011;58864;45.928;20.078;2022-11-20T01:58:19;18.25;;;7.05;;
71166;SDS011;58864;45.928;20.078;2022-11-20T02:04:07;23.90;;;8.13;;
71166;SDS011;58864;45.928;20.078;2022-11-20T02:09:45;17.55;;;7.28;;
71166;SDS011;58864;45.928;20.078;2022-11-20T02:12:18;16.70;;;5.85;;
71166;SDS011;58864;45.928;20.078;2022-11-20T02:15:12;20.90;;;6.88;;
71166;SDS011;58864;45.928;20.078;2022-11-20T02:18:01;28.00;;;8.70;;
71166;SDS011;58864;45.928;20.078;2022-11-20T02:20:42;19.60;;;6.28;;
71166;SDS011;58864;45.928;20.078;2022-11-20T02:23:22;14.73;;;6.40;;
71166;SDS011;58864;45.928;20.078;2022-11-20T02:26:07;20.23;;;7.03;;
71166;SDS011;58864;45.928;20.078;2022-11-20T02:28:53;15.75;;;6.55;;
71166;SDS011;58864;45.928;20.078;2022-11-20T02:31:45;12.97;;;5.97;;
71166;SDS011;58864;45.928;20.078;2022-11-20T02:34:45;27.48;;;7.93;;
71166;SDS011;58864;45.928;20.078;2022-11-20T02:37:16;22.92;;;7.80;;
71166;SDS011;58864;45.928;20.078;2022-11-20T02:39:55;23.58;;;9.70;;
71166;SDS011;58864;45.928;20.078;2022-11-20T02:42:57;19.63;;;7.15;;
71166;SDS011;58864;45.928;20.078;2022-11-20T02:45:38;26.20;;;9.53;;
71166;SDS011;58864;45.928;20.078;2022-11-20T02:48:15;21.00;;;6.43;;
71166;SDS011;58864;45.928;20.078;2022-11-20T02:51:00;19.42;;;7.28;;
71166;SDS011;58864;45.928;20.078;2022-11-20T02:53:29;19.63;;;6.32;;
71166;SDS011;58864;45.928;20.078;2022-11-20T02:56:05;27.45;;;8.80;;
71166;SDS011;58864;45.928;20.078;2022-11-20T02:58:41;12.53;;;5.80;;
71166;SDS011;58864;45.928;20.078;2022-11-20T03:01:27;20.23;;;6.82;;
71166;SDS011;58864;45.928;20.078;2022-11-20T03:04:08;18.88;;;7.03;;
71166;SDS011;58864;45.928;20.078;2022-11-20T03:06:45;14.07;;;6.55;;
71166;SDS011;58864;45.928;20.078;2022-11-20T03:09:24;15.55;;;6.13;;
71166;SDS011;58864;45.928;20.078;2022-11-20T03:11:52;21.07;;;7.50;;
71166;SDS011;58864;45.928;20.078;2022-11-20T03:14:39;26.40;;;9.43;;
71166;SDS011;58864;45.928;20.078;2022-11-20T03:17:12;22.98;;;7.75;;
71166;SDS011;58864;45.928;20.078;2022-11-20T03:19:42;20.88;;;7.40;;
71166;SDS011;58864;45.928;20.078;2022-11-20T03:22:17;15.73;;;6.13;;
71166;SDS011;58864;45.928;20.078;2022-11-20T03:25:04;24.77;;;8.77;;
71166;SDS011;58864;45.928;20.078;2022-11-20T03:27:35;16.33;;;7.03;;
71166;SDS011;58864;45.928;20.078;2022-11-20T03:30:23;15.20;;;6.30;;
71166;SDS011;58864;45.928;20.078;2022-11-20T03:33:25;26.90;;;10.02;;
71166;SDS011;58864;45.928;20.078;2022-11-20T03:36:07;21.92;;;6.43;;
71166;SDS011;58864;45.928;20.078;2022-11-20T03:38:53;28.40;;;10.30;;
71166;SDS011;58864;45.928;20.078;2022-11-20T03:41:30;18.08;;;7.20;;
71166;SDS011;58864;45.928;20.078;2022-11-20T03:44:08;16.13;;;6.72;;
71166;SDS011;58864;45.928;20.078;2022-11-20T03:46:55;13.95;;;5.45;;
71166;SDS011;58864;45.928;20.078;2022-11-20T03:49:43;14.25;;;4.97;;
71166;SDS011;58864;45.928;20.078;2022-11-20T03:52:23;26.37;;;9.53;;
71166;SDS011;58864;45.928;20.078;2022-11-20T03:55:24;32.55;;;10.18;;
71166;SDS011;58864;45.928;20.078;2022-11-20T03:58:26;17.10;;;6.43;;
71166;SDS011;58864;45.928;20.078;2022-11-20T04:01:06;16.27;;;6.95;;
71166;SDS011;58864;45.928;20.078;2022-11-20T04:03:49;17.17;;;6.00;;
71166;SDS011;58864;45.928;20.078;2022-11-20T04:06:28;16.37;;;6.33;;
71166;SDS011;58864;45.928;20.078;2022-11-20T04:09:04;22.02;;;8.48;;
71166;SDS011;58864;45.928;20.078;2022-11-20T04:12:09;18.08;;;7.63;;
71166;SDS011;58864;45.928;20.078;2022-11-20T04:14:47;9.25;;;3.92;;
71166;SDS011;58864;45.928;20.078;2022-11-20T04:17:31;29.60;;;10.38;;
71166;SDS011;58864;45.928;20.078;2022-11-20T04:20:15;16.73;;;5.40;;
71166;SDS011;58864;45.928;20.078;2022-11-20T04:22:52;21.20;;;7.70;;
71166;SDS011;58864;45.928;20.078;2022-11-20T04:25:26;22.13;;;8.20;;
71166;SDS011;58864;45.928;20.078;2022-11-20T04:28:15;13.98;;;6.35;;
71166;SDS011;58864;45.928;20.078;2022-11-20T04:30:47;18.63;;;6.88;;
71166;SDS011;58864;45.928;20.078;2022-11-20T04:33:23;12.60;;;5.23;;
71166;SDS011;58864;45.928;20.078;2022-11-20T04:36:00;20.40;;;7.38;;
71166;SDS011;58864;45.928;20.078;2022-11-20T04:38:31;21.45;;;8.02;;
71166;SDS011;58864;45.928;20.078;2022-11-20T04:41:07;23.30;;;8.13;;
71166;SDS011;58864;45.928;20.078;2022-11-20T04:43:49;26.85;;;8.57;;
71166;SDS011;58864;45.928;20.078;2022-11-20T04:46:32;19.43;;;6.27;;
71166;SDS011;58864;45.928;20.078;2022-11-20T04:49:25;25.17;;;9.07;;
71166;SDS011;58864;45.928;20.078;2022-11-20T04:52:01;17.67;;;6.55;;
71166;SDS011;58864;45.928;20.078;2022-11-20T04:54:46;21.00;;;8.40;;
71166;SDS011;58864;45.928;20.078;2022-11-20T04:57:24;20.42;;;7.45;;
71166;SDS011;58864;45.928;20.078;2022-11-20T04:59:56;18.90;;;6.73;;
71166;SDS011;58864;45.928;20.078;2022-11-20T05:02:44;20.77;;;6.97;;
71166;SDS011;58864;45.928;20.078;2022-11-20T05:05:25;12.77;;;5.85;;
71166;SDS011;58864;45.928;20.078;2022-11-20T05:08:05;16.90;;;6.60;;
71166;SDS011;58864;45.928;20.078;2022-11-20T05:10:38;25.60;;;9.93;;
71166;SDS011;58864;45.928;20.078;2022-11-20T05:13:16;30.73;;;10.27;;
71166;SDS011;58864;45.928;20.078;2022-11-20T05:15:49;27.00;;;9.82;;
71166;SDS011;58864;45.928;20.078;2022-11-20T05:18:46;18.38;;;6.18;;
71166;SDS011;58864;45.928;20.078;2022-11-20T05:21:54;17.25;;;6.22;;
71166;SDS011;58864;45.928;20.078;2022-11-20T05:24:28;18.20;;;8.15;;
71166;SDS011;58864;45.928;20.078;2022-11-20T05:27:05;13.90;;;6.07;;
71166;SDS011;58864;45.928;20.078;2022-11-20T05:29:44;22.50;;;7.20;;
71166;SDS011;58864;45.928;20.078;2022-11-20T05:32:17;32.25;;;11.40;;
71166;SDS011;58864;45.928;20.078;2022-11-20T05:34:56;24.25;;;9.38;;
71166;SDS011;58864;45.928;20.078;2022-11-20T05:37:42;24.17;;;6.85;;
71166;SDS011;58864;45.928;20.078;2022-11-20T05:40:22;17.33;;;5.13;;
71166;SDS011;58864;45.928;20.078;2022-11-20T05:42:57;23.38;;;8.32;;
71166;SDS011;58864;45.928;20.078;2022-11-20T05:45:28;22.55;;;7.78;;
71166;SDS011;58864;45.928;20.078;2022-11-20T05:48:09;17.90;;;6.57;;
71166;SDS011;58864;45.928;20.078;2022-11-20T05:50:50;14.88;;;5.53;;
71166;SDS011;58864;45.928;20.078;2022-11-20T05:53:25;20.00;;;7.30;;
71166;SDS011;58864;45.928;20.078;2022-11-20T05:56:06;21.15;;;6.97;;
71166;SDS011;58864;45.928;20.078;2022-11-20T05:58:51;28.05;;;9.65;;
71166;SDS011;58864;45.928;20.078;2022-11-20T06:01:26;22.83;;;7.53;;
71166;SDS011;58864;45.928;20.078;2022-11-20T06:03:54;27.90;;;6.32;;
71166;SDS011;58864;45.928;20.078;2022-11-20T06:06:29;29.07;;;8.00;;
71166;SDS011;58864;45.928;20.078;2022-11-20T06:08:54;31.05;;;8.57;;
71166;SDS011;58864;45.928;20.078;2022-11-20T06:11:21;21.38;;;8.00;;
71166;SDS011;58864;45.928;20.078;2022-11-20T06:13:55;17.55;;;6.68;;
71166;SDS011;58864;45.928;20.078;2022-11-20T06:16:33;13.27;;;5.32;;
71166;SDS011;58864;45.928;20.078;2022-11-20T06:18:59;28.13;;;8.77;;
71166;SDS011;58864;45.928;20.078;2022-11-20T06:21:28;17.50;;;6.15;;
71166;SDS011;58864;45.928;20.078;2022-11-20T06:23:55;11.45;;;4.85;;
71166;SDS011;58864;45.928;20.078;2022-11-20T06:26:24;18.52;;;6.45;;
71166;SDS011;58864;45.928;20.078;2022-11-20T06:28:55;24.05;;;8.82;;
71166;SDS011;58864;45.928;20.078;2022-11-20T06:31:25;27.13;;;9.57;;
71166;SDS011;58864;45.928;20.078;2022-11-20T06:33:52;18.52;;;8.38;;
71166;SDS011;58864;45.928;20.078;2022-11-20T06:36:24;22.83;;;6.72;;
71166;SDS011;58864;45.928;20.078;2022-11-20T06:38:52;18.23;;;6.65;;
71166;SDS011;58864;45.928;20.078;2022-11-20T06:41:28;16.42;;;5.47;;
71166;SDS011;58864;45.928;20.078;2022-11-20T06:43:58;12.63;;;5.83;;
71166;SDS011;58864;45.928;20.078;2022-11-20T06:46:24;17.20;;;6.60;;
71166;SDS011;58864;45.928;20.078;2022-11-20T06:48:52;14.85;;;6.30;;
71166;SDS011;58864;45.928;20.078;2022-11-20T06:51:21;26.02;;;9.10;;
71166;SDS011;58864;45.928;20.078;2022-11-20T06:53:48;17.90;;;7.18;;
71166;SDS011;58864;45.928;20.078;2022-11-20T06:56:27;16.60;;;5.00;;
71166;SDS011;58864;45.928;20.078;2022-11-20T06:59:00;24.92;;;8.60;;
71166;SDS011;58864;45.928;20.078;2022-11-20T07:01:32;15.68;;;7.20;;
71166;SDS011;58864;45.928;20.078;2022-11-20T07:04:05;16.27;;;7.03;;
71166;SDS011;58864;45.928;20.078;2022-11-20T07:06:43;13.32;;;5.20;;
71166;SDS011;58864;45.928;20.078;2022-11-20T07:09:14;21.13;;;6.97;;
71166;SDS011;58864;45.928;20.078;2022-11-20T07:11:41;16.40;;;5.88;;
71166;SDS011;58864;45.928;20.078;2022-11-20T07:14:06;13.40;;;5.32;;
71166;SDS011;58864;45.928;20.078;2022-11-20T07:17:03;26.05;;;7.75;;
71166;SDS011;58864;45.928;20.078;2022-11-20T07:19:33;9.05;;;4.20;;
71166;SDS011;58864;45.928;20.078;2022-11-20T07:22:11;14.27;;;5.77;;
71166;SDS011;58864;45.928;20.078;2022-11-20T07:24:59;16.08;;;6.00;;
71166;SDS011;58864;45.928;20.078;2022-11-20T07:27:38;15.70;;;7.40;;
71166;SDS011;58864;45.928;20.078;2022-11-20T07:30:07;20.58;;;8.15;;
71166;SDS011;58864;45.928;20.078;2022-11-20T07:32:52;21.42;;;7.95;;
71166;SDS011;58864;45.928;20.078;2022-11-20T07:35:24;17.70;;;7.70;;
71166;SDS011;58864;45.928;20.078;2022-11-20T07:37:54;16.33;;;7.38;;
71166;SDS011;58864;45.928;20.078;2022-11-20T07:40:37;20.42;;;6.40;;
71166;SDS011;58864;45.928;20.078;2022-11-20T07:43:09;24.13;;;8.35;;
71166;SDS011;58864;45.928;20.078;2022-11-20T07:45:49;29.95;;;12.45;;
71166;SDS011;58864;45.928;20.078;2022-11-20T07:48:21;34.77;;;14.87;;
71166;SDS011;58864;45.928;20.078;2022-11-20T07:50:53;15.63;;;6.10;;
71166;SDS011;58864;45.928;20.078;2022-11-20T07:53:28;17.02;;;7.72;;
71166;SDS011;58864;45.928;20.078;2022-11-20T07:55:58;16.75;;;6.68;;
71166;SDS011;58864;45.928;20.078;2022-11-20T07:58:28;15.23;;;4.90;;
71166;SDS011;58864;45.928;20.078;2022-11-20T08:00:58;19.07;;;7.40;;
71166;SDS011;58864;45.928;20.078;2022-11-20T08:03:37;13.20;;;4.82;;
71166;SDS011;58864;45.928;20.078;2022-11-20T08:06:20;20.33;;;7.95;;
71166;SDS011;58864;45.928;20.078;2022-11-20T08:08:56;39.33;;;12.45;;
71166;SDS011;58864;45.928;20.078;2022-11-20T08:11:26;14.10;;;5.07;;
71166;SDS011;58864;45.928;20.078;2022-11-20T08:14:12;17.40;;;6.80;;
71166;SDS011;58864;45.928;20.078;2022-11-20T08:16:44;15.05;;;5.72;;
71166;SDS011;58864;45.928;20.078;2022-11-20T08:19:14;24.25;;;8.77;;
71166;SDS011;58864;45.928;20.078;2022-11-20T08:21:40;22.80;;;6.88;;
71166;SDS011;58864;45.928;20.078;2022-11-20T08:24:08;17.98;;;6.20;;
71166;SDS011;58864;45.928;20.078;2022-11-20T08:26:43;19.20;;;6.07;;
71166;SDS011;58864;45.928;20.078;2022-11-20T08:29:20;18.60;;;7.05;;
71166;SDS011;58864;45.928;20.078;2022-11-20T08:31:51;24.88;;;9.02;;
71166;SDS011;58864;45.928;20.078;2022-11-20T08:34:32;22.80;;;7.50;;
71166;SDS011;58864;45.928;20.078;2022-11-20T08:37:10;23.35;;;8.43;;
71166;SDS011;58864;45.928;20.078;2022-11-20T08:39:42;25.73;;;9.47;;
71166;SDS011;58864;45.928;20.078;2022-11-20T08:42:13;17.40;;;7.97;;
71166;SDS011;58864;45.928;20.078;2022-11-20T08:44:46;31.63;;;10.02;;
71166;SDS011;58864;45.928;20.078;2022-11-20T08:47:15;18.85;;;7.05;;
71166;SDS011;58864;45.928;20.078;2022-11-20T08:49:48;37.53;;;13.23;;
71166;SDS011;58864;45.928;20.078;2022-11-20T08:52:23;26.35;;;10.25;;
71166;SDS011;58864;45.928;20.078;2022-11-20T08:55:01;23.20;;;7.85;;
71166;SDS011;58864;45.928;20.078;2022-11-20T08:57:42;16.45;;;7.28;;
71166;SDS011;58864;45.928;20.078;2022-11-20T09:00:22;15.98;;;6.28;;
71166;SDS011;58864;45.928;20.078;2022-11-20T09:02:50;23.53;;;9.07;;
71166;SDS011;58864;45.928;20.078;2022-11-20T09:05:25;29.23;;;10.73;;
71166;SDS011;58864;45.928;20.078;2022-11-20T09:07:58;17.83;;;7.05;;
71166;SDS011;58864;45.928;20.078;2022-11-20T09:10:33;30.08;;;10.15;;
71166;SDS011;58864;45.928;20.078;2022-11-20T09:13:24;16.58;;;5.72;;
71166;SDS011;58864;45.928;20.078;2022-11-20T09:15:58;15.90;;;6.00;;
71166;SDS011;58864;45.928;20.078;2022-11-20T09:18:32;27.60;;;5.68;;
71166;SDS011;58864;45.928;20.078;2022-11-20T09:21:01;14.63;;;6.82;;
71166;SDS011;58864;45.928;20.078;2022-11-20T09:23:38;16.90;;;6.30;;
71166;SDS011;58864;45.928;20.078;2022-11-20T09:26:12;15.68;;;5.80;;
71166;SDS011;58864;45.928;20.078;2022-11-20T09:28:42;20.40;;;5.77;;
71166;SDS011;58864;45.928;20.078;2022-11-20T09:31:24;20.27;;;6.65;;
71166;SDS011;58864;45.928;20.078;2022-11-20T09:34:01;19.98;;;7.55;;
71166;SDS011;58864;45.928;20.078;2022-11-20T09:36:34;10.35;;;4.30;;
71166;SDS011;58864;45.928;20.078;2022-11-20T09:39:08;12.23;;;3.60;;
71166;SDS011;58864;45.928;20.078;2022-11-20T09:47:20;9.13;;;3.90;;
71166;SDS011;58864;45.928;20.078;2022-11-20T09:55:44;22.30;;;6.83;;
71166;SDS011;58864;45.928;20.078;2022-11-20T09:58:32;15.63;;;5.03;;
71166;SDS011;58864;45.928;20.078;2022-11-20T10:01:16;13.88;;;5.68;;
71166;SDS011;58864;45.928;20.078;2022-11-20T10:06:47;23.92;;;8.80;;
71166;SDS011;58864;45.928;20.078;2022-11-20T10:09:43;13.23;;;6.23;;
71166;SDS011;58864;45.928;20.078;2022-11-20T10:16:03;17.55;;;6.68;;
71166;SDS011;58864;45.928;20.078;2022-11-20T10:19:00;8.98;;;4.03;;
71166;SDS011;58864;45.928;20.078;2022-11-20T10:30:30;26.67;;;9.45;;
71166;SDS011;58864;45.928;20.078;2022-11-20T10:33:23;31.30;;;10.68;;
71166;SDS011;58864;45.928;20.078;2022-11-20T10:36:21;21.83;;;8.52;;
71166;SDS011;58864;45.928;20.078;2022-11-20T10:38:59;27.37;;;9.60;;
71166;SDS011;58864;45.928;20.078;2022-11-20T10:41:40;23.13;;;9.85;;
71166;SDS011;58864;45.928;20.078;2022-11-20T10:44:22;25.88;;;9.80;;
71166;SDS011;58864;45.928;20.078;2022-11-20T10:47:14;13.38;;;5.90;;
71166;SDS011;58864;45.928;20.078;2022-11-20T10:49:43;20.10;;;7.43;;
71166;SDS011;58864;45.928;20.078;2022-11-20T10:52:42;20.20;;;6.40;;
71166;SDS011;58864;45.928;20.078;2022-11-20T10:55:33;12.13;;;4.85;;
71166;SDS011;58864;45.928;20.078;2022-11-20T10:58:21;12.13;;;5.18;;
71166;SDS011;58864;45.928;20.078;2022-11-20T11:00:49;19.70;;;7.25;;
71166;SDS011;58864;45.928;20.078;2022-11-20T11:03:20;26.15;;;10.13;;
71166;SDS011;58864;45.928;20.078;2022-11-20T11:06:14;12.50;;;4.97;;
71166;SDS011;58864;45.928;20.078;2022-11-20T11:09:03;20.08;;;7.43;;
71166;SDS011;58864;45.928;20.078;2022-11-20T11:11:34;20.77;;;7.38;;
71166;SDS011;58864;45.928;20.078;2022-11-20T11:14:06;24.20;;;8.10;;
71166;SDS011;58864;45.928;20.078;2022-11-20T11:16:52;24.67;;;7.63;;
71166;SDS011;58864;45.928;20.078;2022-11-20T11:19:19;18.53;;;6.03;;
71166;SDS011;58864;45.928;20.078;2022-11-20T11:21:51;23.42;;;7.78;;
71166;SDS011;58864;45.928;20.078;2022-11-20T11:24:21;27.98;;;10.10;;
71166;SDS011;58864;45.928;20.078;2022-11-20T11:26:53;20.48;;;6.50;;
71166;SDS011;58864;45.928;20.078;2022-11-20T11:29:26;11.98;;;4.65;;
71166;SDS011;58864;45.928;20.078;2022-11-20T11:32:03;20.27;;;6.13;;
71166;SDS011;58864;45.928;20.078;2022-11-20T11:34:39;15.23;;;5.72;;
71166;SDS011;58864;45.928;20.078;2022-11-20T11:37:26;22.92;;;7.07;;
71166;SDS011;58864;45.928;20.078;2022-11-20T11:40:10;12.95;;;5.70;;
71166;SDS011;58864;45.928;20.078;2022-11-20T11:43:16;18.25;;;6.10;;
71166;SDS011;58864;45.928;20.078;2022-11-20T11:46:23;7.13;;;3.17;;
71166;SDS011;58864;45.928;20.078;2022-11-20T11:49:00;17.90;;;5.97;;
71166;SDS011;58864;45.928;20.078;2022-11-20T11:51:33;36.30;;;12.35;;
71166;SDS011;58864;45.928;20.078;2022-11-20T11:54:14;17.92;;;7.07;;
71166;SDS011;58864;45.928;20.078;2022-11-20T11:56:42;18.02;;;5.60;;
71166;SDS011;58864;45.928;20.078;2022-11-20T11:59:12;14.37;;;5.70;;
71166;SDS011;58864;45.928;20.078;2022-11-20T12:02:04;20.67;;;7.20;;
71166;SDS011;58864;45.928;20.078;2022-11-20T12:04:42;29.83;;;10.70;;
71166;SDS011;58864;45.928;20.078;2022-11-20T12:10:12;23.40;;;7.63;;
71166;SDS011;58864;45.928;20.078;2022-11-20T12:12:51;32.63;;;10.63;;
71166;SDS011;58864;45.928;20.078;2022-11-20T12:15:33;31.30;;;9.88;;
71166;SDS011;58864;45.928;20.078;2022-11-20T12:18:01;24.50;;;7.68;;
71166;SDS011;58864;45.928;20.078;2022-11-20T12:20:35;23.40;;;8.95;;
71166;SDS011;58864;45.928;20.078;2022-11-20T12:23:14;29.27;;;8.00;;
71166;SDS011;58864;45.928;20.078;2022-11-20T12:26:02;12.40;;;4.10;;
71166;SDS011;58864;45.928;20.078;2022-11-20T12:31:45;19.38;;;7.47;;
71166;SDS011;58864;45.928;20.078;2022-11-20T12:37:04;30.08;;;9.38;;
71166;SDS011;58864;45.928;20.078;2022-11-20T12:39:56;22.83;;;8.43;;
71166;SDS011;58864;45.928;20.078;2022-11-20T12:42:35;24.90;;;9.13;;
71166;SDS011;58864;45.928;20.078;2022-11-20T12:48:19;25.38;;;9.48;;
71166;SDS011;58864;45.928;20.078;2022-11-20T12:56:49;17.27;;;5.32;;
71166;SDS011;58864;45.928;20.078;2022-11-20T13:05:43;12.77;;;4.80;;
71166;SDS011;58864;45.928;20.078;2022-11-20T13:08:21;16.97;;;6.10;;
71166;SDS011;58864;45.928;20.078;2022-11-20T13:10:56;20.98;;;7.13;;
71166;SDS011;58864;45.928;20.078;2022-11-20T13:13:43;22.05;;;7.50;;
71166;SDS011;58864;45.928;20.078;2022-11-20T13:16:45;17.00;;;5.53;;
71166;SDS011;58864;45.928;20.078;2022-11-20T13:19:22;16.67;;;6.78;;
71166;SDS011;58864;45.928;20.078;2022-11-20T13:21:50;22.30;;;7.73;;
71166;SDS011;58864;45.928;20.078;2022-11-20T13:24:23;20.35;;;7.35;;
71166;SDS011;58864;45.928;20.078;2022-11-20T13:27:04;9.65;;;4.03;;
71166;SDS011;58864;45.928;20.078;2022-11-20T13:29:35;21.67;;;7.05;;
71166;SDS011;58864;45.928;20.078;2022-11-20T13:32:06;19.90;;;6.53;;
71166;SDS011;58864;45.928;20.078;2022-11-20T13:34:39;19.50;;;6.87;;
71166;SDS011;58864;45.928;20.078;2022-11-20T13:37:05;24.05;;;7.20;;
71166;SDS011;58864;45.928;20.078;2022-11-20T13:39:48;20.05;;;7.07;;
71166;SDS011;58864;45.928;20.078;2022-11-20T13:44:46;21.20;;;7.53;;
71166;SDS011;58864;45.928;20.078;2022-11-20T13:47:23;17.93;;;6.43;;
71166;SDS011;58864;45.928;20.078;2022-11-20T13:49:54;17.98;;;7.28;;
71166;SDS011;58864;45.928;20.078;2022-11-20T13:58:32;20.50;;;8.43;;
71166;SDS011;58864;45.928;20.078;2022-11-20T14:01:00;21.97;;;7.83;;
71166;SDS011;58864;45.928;20.078;2022-11-20T14:03:44;24.08;;;9.00;;
71166;SDS011;58864;45.928;20.078;2022-11-20T14:06:31;17.42;;;6.68;;
71166;SDS011;58864;45.928;20.078;2022-11-20T14:09:09;23.70;;;8.82;;
71166;SDS011;58864;45.928;20.078;2022-11-20T14:12:03;20.20;;;7.93;;
71166;SDS011;58864;45.928;20.078;2022-11-20T14:14:46;28.67;;;9.70;;
71166;SDS011;58864;45.928;20.078;2022-11-20T14:17:33;26.00;;;9.77;;
71166;SDS011;58864;45.928;20.078;2022-11-20T14:20:05;21.33;;;7.72;;
71166;SDS011;58864;45.928;20.078;2022-11-20T14:22:37;29.38;;;11.68;;
71166;SDS011;58864;45.928;20.078;2022-11-20T14:27:49;26.20;;;9.03;;
71166;SDS011;58864;45.928;20.078;2022-11-20T14:30:35;18.95;;;6.57;;
71166;SDS011;58864;45.928;20.078;2022-11-20T14:33:15;28.10;;;9.95;;
71166;SDS011;58864;45.928;20.078;2022-11-20T14:36:15;21.58;;;8.50;;
71166;SDS011;58864;45.928;20.078;2022-11-20T14:38:56;28.98;;;10.48;;
71166;SDS011;58864;45.928;20.078;2022-11-20T14:41:49;29.17;;;10.53;;
71166;SDS011;58864;45.928;20.078;2022-11-20T14:44:30;29.35;;;10.07;;
71166;SDS011;58864;45.928;20.078;2022-11-20T14:47:15;19.95;;;7.93;;
71166;SDS011;58864;45.928;20.078;2022-11-20T14:50:02;22.92;;;8.73;;
71166;SDS011;58864;45.928;20.078;2022-11-20T14:53:00;28.42;;;11.90;;
71166;SDS011;58864;45.928;20.078;2022-11-20T14:55:41;30.50;;;11.07;;
71166;SDS011;58864;45.928;20.078;2022-11-20T14:58:29;29.00;;;10.85;;
71166;SDS011;58864;45.928;20.078;2022-11-20T15:01:12;34.42;;;12.63;;
71166;SDS011;58864;45.928;20.078;2022-11-20T15:04:15;35.42;;;11.82;;
71166;SDS011;58864;45.928;20.078;2022-11-20T15:06:54;30.42;;;11.38;;
71166;SDS011;58864;45.928;20.078;2022-11-20T15:09:36;30.57;;;11.60;;
71166;SDS011;58864;45.928;20.078;2022-11-20T15:12:15;33.28;;;13.07;;
71166;SDS011;58864;45.928;20.078;2022-11-20T15:14:49;39.30;;;14.82;;
71166;SDS011;58864;45.928;20.078;2022-11-20T15:17:25;69.18;;;18.15;;
71166;SDS011;58864;45.928;20.078;2022-11-20T15:20:09;53.85;;;17.05;;
71166;SDS011;58864;45.928;20.078;2022-11-20T15:22:48;38.83;;;14.07;;
71166;SDS011;58864;45.928;20.078;2022-11-20T15:25:24;41.28;;;13.05;;
71166;SDS011;58864;45.928;20.078;2022-11-20T15:27:57;32.08;;;11.73;;
71166;SDS011;58864;45.928;20.078;2022-11-20T15:30:35;50.47;;;15.20;;
71166;SDS011;58864;45.928;20.078;2022-11-20T15:33:08;59.00;;;17.38;;
71166;SDS011;58864;45.928;20.078;2022-11-20T15:35:45;46.20;;;14.73;;
71166;SDS011;58864;45.928;20.078;2022-11-20T15:38:31;54.42;;;15.88;;
71166;SDS011;58864;45.928;20.078;2022-11-20T15:41:08;54.53;;;17.20;;
71166;SDS011;58864;45.928;20.078;2022-11-20T15:46:53;51.85;;;15.50;;
71166;SDS011;58864;45.928;20.078;2022-11-20T15:49:30;68.30;;;18.60;;
71166;SDS011;58864;45.928;20.078;2022-11-20T15:52:11;58.53;;;16.60;;
71166;SDS011;58864;45.928;20.078;2022-11-20T15:54:56;62.30;;;18.50;;
71166;SDS011;58864;45.928;20.078;2022-11-20T15:57:41;46.60;;;14.73;;
71166;SDS011;58864;45.928;20.078;2022-11-20T16:00:12;39.83;;;14.18;;
71166;SDS011;58864;45.928;20.078;2022-11-20T16:03:14;45.93;;;15.83;;
71166;SDS011;58864;45.928;20.078;2022-11-20T16:05:47;46.63;;;16.08;;
71166;SDS011;58864;45.928;20.078;2022-11-20T16:08:27;37.50;;;13.95;;
71166;SDS011;58864;45.928;20.078;2022-11-20T16:11:06;39.72;;;12.80;;
71166;SDS011;58864;45.928;20.078;2022-11-20T16:13:42;34.63;;;12.48;;
71166;SDS011;58864;45.928;20.078;2022-11-20T16:16:36;30.90;;;11.10;;
71166;SDS011;58864;45.928;20.078;2022-11-20T16:19:16;34.67;;;12.80;;
71166;SDS011;58864;45.928;20.078;2022-11-20T16:21:57;37.85;;;13.23;;
71166;SDS011;58864;45.928;20.078;2022-11-20T16:24:41;28.70;;;10.13;;
71166;SDS011;58864;45.928;20.078;2022-11-20T16:27:30;26.67;;;10.07;;
71166;SDS011;58864;45.928;20.078;2022-11-20T16:30:03;33.17;;;12.23;;
71166;SDS011;58864;45.928;20.078;2022-11-20T16:32:42;34.03;;;12.35;;
71166;SDS011;58864;45.928;20.078;2022-11-20T16:35:26;21.92;;;8.02;;
71166;SDS011;58864;45.928;20.078;2022-11-20T16:38:13;42.15;;;13.57;;
71166;SDS011;58864;45.928;20.078;2022-11-20T16:40:47;36.83;;;12.90;;
71166;SDS011;58864;45.928;20.078;2022-11-20T16:43:37;51.27;;;15.87;;